sensor_id;sensor_type;location;lat;lon;timestamp;temperature;humidity
1626;DHT22;806;48.770;9.156;2023-05-07T00:01:44;16.20;99.90
1626;DHT22;806;48.770;9.156;2023-05-07T00:04:11;16.20;99.90
1626;DHT22;806;48.770;9.156;2023-05-07T00:06:40;16.20;99.90
1626;DHT22;806;48.770;9.156;2023-05-07T00:09:07;16.20;99.90
1626;DHT22;806;48.770;9.156;2023-05-07T00:11:34;16.10;99.90
1626;DHT22;806;48.770;9.156;2023-05-07T00:14:01;16.10;99.90
1626;DHT22;806;48.770;9.156;2023-05-07T00:16:28;16.10;99.90
1626;DHT22;806;48.770;9.156;2023-05-07T00:18:55;16.10;99.90
1626;DHT22;806;48.770;9.156;2023-05-07T00:21:22;16.10;99.90
1626;DHT22;806;48.770;9.156;2023-05-07T00:23:53;16.10;99.90
1626;DHT22;806;48.770;9.156;2023-05-07T00:26:20;16.10;99.90
1626;DHT22;806;48.770;9.156;2023-05-07T00:28:47;16.00;99.90
1626;DHT22;806;48.770;9.156;2023-05-07T00:31:14;16.00;99.90
1626;DHT22;806;48.770;9.156;2023-05-07T00:33:41;16.00;99.90
1626;DHT22;806;48.770;9.156;2023-05-07T00:36:08;16.00;99.90
1626;DHT22;806;48.770;9.156;2023-05-07T00:38:35;16.10;99.90
1626;DHT22;806;48.770;9.156;2023-05-07T00:41:04;16.10;99.90
1626;DHT22;806;48.770;9.156;2023-05-07T00:43:34;16.00;99.90
1626;DHT22;806;48.770;9.156;2023-05-07T00:46:01;16.00;99.90
1626;DHT22;806;48.770;9.156;2023-05-07T00:48:28;16.00;99.90
1626;DHT22;806;48.770;9.156;2023-05-07T00:50:56;16.00;99.90
1626;DHT22;806;48.770;9.156;2023-05-07T00:53:23;16.00;99.90
1626;DHT22;806;48.770;9.156;2023-05-07T00:55:52;15.90;99.90
1626;DHT22;806;48.770;9.156;2023-05-07T00:58:21;15.80;99.90
1626;DHT22;806;48.770;9.156;2023-05-07T01:00:48;15.70;99.90
1626;DHT22;806;48.770;9.156;2023-05-07T01:03:15;15.70;99.90
1626;DHT22;806;48.770;9.156;2023-05-07T01:05:43;15.70;99.90
1626;DHT22;806;48.770;9.156;2023-05-07T01:08:11;15.70;99.90
1626;DHT22;806;48.770;9.156;2023-05-07T01:10:38;15.70;99.90
1626;DHT22;806;48.770;9.156;2023-05-07T01:13:09;15.70;99.90
1626;DHT22;806;48.770;9.156;2023-05-07T01:15:37;15.70;99.90
1626;DHT22;806;48.770;9.156;2023-05-07T01:18:06;15.70;99.90
1626;DHT22;806;48.770;9.156;2023-05-07T01:20:33;15.60;99.90
1626;DHT22;806;48.770;9.156;2023-05-07T01:23:03;15.50;99.90
1626;DHT22;806;48.770;9.156;2023-05-07T01:25:30;15.50;99.90
1626;DHT22;806;48.770;9.156;2023-05-07T01:27:57;15.40;99.90
1626;DHT22;806;48.770;9.156;2023-05-07T01:30:27;15.30;99.90
1626;DHT22;806;48.770;9.156;2023-05-07T01:32:58;15.40;99.90
1626;DHT22;806;48.770;9.156;2023-05-07T01:35:29;15.30;99.90
1626;DHT22;806;48.770;9.156;2023-05-07T01:37:56;15.30;99.90
1626;DHT22;806;48.770;9.156;2023-05-07T01:40:26;15.20;99.90
1626;DHT22;806;48.770;9.156;2023-05-07T01:42:54;15.30;99.90
1626;DHT22;806;48.770;9.156;2023-05-07T01:45:21;15.30;99.90
1626;DHT22;806;48.770;9.156;2023-05-07T01:47:49;15.30;99.90
1626;DHT22;806;48.770;9.156;2023-05-07T01:50:17;15.30;99.90
1626;DHT22;806;48.770;9.156;2023-05-07T01:52:45;15.30;99.90
1626;DHT22;806;48.770;9.156;2023-05-07T01:55:12;15.30;99.90
1626;DHT22;806;48.770;9.156;2023-05-07T01:57:41;15.20;99.90
1626;DHT22;806;48.770;9.156;2023-05-07T02:00:09;15.20;99.90
1626;DHT22;806;48.770;9.156;2023-05-07T02:02:36;15.10;99.90
1626;DHT22;806;48.770;9.156;2023-05-07T02:05:04;15.20;99.90
1626;DHT22;806;48.770;9.156;2023-05-07T02:07:31;15.20;99.90
1626;DHT22;806;48.770;9.156;2023-05-07T02:09:58;15.20;99.90
1626;DHT22;806;48.770;9.156;2023-05-07T02:12:25;15.20;99.90
1626;DHT22;806;48.770;9.156;2023-05-07T02:14:54;15.10;99.90
1626;DHT22;806;48.770;9.156;2023-05-07T02:17:21;15.10;99.90
1626;DHT22;806;48.770;9.156;2023-05-07T02:19:48;15.20;99.90
1626;DHT22;806;48.770;9.156;2023-05-07T02:22:15;15.10;99.90
1626;DHT22;806;48.770;9.156;2023-05-07T02:24:42;15.10;99.90
1626;DHT22;806;48.770;9.156;2023-05-07T02:27:10;15.10;99.90
1626;DHT22;806;48.770;9.156;2023-05-07T02:29:37;15.10;99.90
1626;DHT22;806;48.770;9.156;2023-05-07T02:32:05;15.10;99.90
1626;DHT22;806;48.770;9.156;2023-05-07T02:34:32;15.10;99.90
1626;DHT22;806;48.770;9.156;2023-05-07T02:36:59;15.00;99.90
1626;DHT22;806;48.770;9.156;2023-05-07T02:39:27;15.00;99.90
1626;DHT22;806;48.770;9.156;2023-05-07T02:41:54;14.90;99.90
1626;DHT22;806;48.770;9.156;2023-05-07T02:44:21;14.80;99.90
1626;DHT22;806;48.770;9.156;2023-05-07T02:46:48;14.80;99.90
1626;DHT22;806;48.770;9.156;2023-05-07T02:49:16;14.80;99.90
1626;DHT22;806;48.770;9.156;2023-05-07T02:51:43;14.90;99.90
1626;DHT22;806;48.770;9.156;2023-05-07T02:54:10;14.90;99.90
1626;DHT22;806;48.770;9.156;2023-05-07T02:56:37;15.00;99.90
1626;DHT22;806;48.770;9.156;2023-05-07T02:59:04;15.00;99.90
1626;DHT22;806;48.770;9.156;2023-05-07T03:01:31;14.90;99.90
1626;DHT22;806;48.770;9.156;2023-05-07T03:03:58;15.00;99.90
1626;DHT22;806;48.770;9.156;2023-05-07T03:06:27;15.00;99.90
1626;DHT22;806;48.770;9.156;2023-05-07T03:08:54;14.90;99.90
1626;DHT22;806;48.770;9.156;2023-05-07T03:11:21;14.80;99.90
1626;DHT22;806;48.770;9.156;2023-05-07T03:13:48;14.60;99.90
1626;DHT22;806;48.770;9.156;2023-05-07T03:16:15;14.60;99.90
1626;DHT22;806;48.770;9.156;2023-05-07T03:18:42;14.50;99.90
1626;DHT22;806;48.770;9.156;2023-05-07T03:21:10;14.50;99.90
1626;DHT22;806;48.770;9.156;2023-05-07T03:23:38;14.40;99.90
1626;DHT22;806;48.770;9.156;2023-05-07T03:26:05;14.40;99.90
1626;DHT22;806;48.770;9.156;2023-05-07T03:28:32;14.50;99.90
1626;DHT22;806;48.770;9.156;2023-05-07T03:30:59;14.50;99.90
1626;DHT22;806;48.770;9.156;2023-05-07T03:33:26;14.50;99.90
1626;DHT22;806;48.770;9.156;2023-05-07T03:35:54;14.50;99.90
1626;DHT22;806;48.770;9.156;2023-05-07T03:38:21;14.50;99.90
1626;DHT22;806;48.770;9.156;2023-05-07T03:40:49;14.60;99.90
1626;DHT22;806;48.770;9.156;2023-05-07T03:43:16;14.60;99.90
1626;DHT22;806;48.770;9.156;2023-05-07T03:45:43;14.50;99.90
1626;DHT22;806;48.770;9.156;2023-05-07T03:48:13;14.50;99.90
1626;DHT22;806;48.770;9.156;2023-05-07T03:50:40;14.40;99.90
1626;DHT22;806;48.770;9.156;2023-05-07T03:53:07;14.30;99.90
1626;DHT22;806;48.770;9.156;2023-05-07T03:55:40;14.30;99.90
1626;DHT22;806;48.770;9.156;2023-05-07T03:58:08;14.30;99.90
1626;DHT22;806;48.770;9.156;2023-05-07T04:00:35;14.30;99.90
1626;DHT22;806;48.770;9.156;2023-05-07T04:03:04;14.30;99.90
1626;DHT22;806;48.770;9.156;2023-05-07T04:05:31;14.30;99.90
1626;DHT22;806;48.770;9.156;2023-05-07T04:07:58;14.30;99.90
1626;DHT22;806;48.770;9.156;2023-05-07T04:10:25;14.40;99.90
1626;DHT22;806;48.770;9.156;2023-05-07T04:12:53;14.40;99.90
1626;DHT22;806;48.770;9.156;2023-05-07T04:15:23;14.50;99.90
1626;DHT22;806;48.770;9.156;2023-05-07T04:17:50;14.60;99.90
1626;DHT22;806;48.770;9.156;2023-05-07T04:20:17;14.60;99.90
1626;DHT22;806;48.770;9.156;2023-05-07T04:22:44;14.60;99.90
1626;DHT22;806;48.770;9.156;2023-05-07T04:25:11;14.60;99.90
1626;DHT22;806;48.770;9.156;2023-05-07T04:27:38;14.60;99.90
1626;DHT22;806;48.770;9.156;2023-05-07T04:30:07;14.50;99.90
1626;DHT22;806;48.770;9.156;2023-05-07T04:32:36;14.50;99.90
1626;DHT22;806;48.770;9.156;2023-05-07T04:35:03;14.40;99.90
1626;DHT22;806;48.770;9.156;2023-05-07T04:37:32;14.40;99.90
1626;DHT22;806;48.770;9.156;2023-05-07T04:39:59;14.30;99.90
1626;DHT22;806;48.770;9.156;2023-05-07T04:42:26;14.30;99.90
1626;DHT22;806;48.770;9.156;2023-05-07T04:44:53;14.40;99.90
1626;DHT22;806;48.770;9.156;2023-05-07T04:47:20;14.40;99.90
1626;DHT22;806;48.770;9.156;2023-05-07T04:49:49;14.30;99.90
1626;DHT22;806;48.770;9.156;2023-05-07T04:52:16;14.30;99.90
1626;DHT22;806;48.770;9.156;2023-05-07T04:54:43;14.30;99.90
1626;DHT22;806;48.770;9.156;2023-05-07T04:57:10;14.30;99.90
1626;DHT22;806;48.770;9.156;2023-05-07T04:59:37;14.30;99.90
1626;DHT22;806;48.770;9.156;2023-05-07T05:02:04;14.30;99.90
1626;DHT22;806;48.770;9.156;2023-05-07T05:04:31;14.30;99.90
1626;DHT22;806;48.770;9.156;2023-05-07T05:07:00;14.30;99.90
1626;DHT22;806;48.770;9.156;2023-05-07T05:09:28;14.30;99.90
1626;DHT22;806;48.770;9.156;2023-05-07T05:11:55;14.30;99.90
1626;DHT22;806;48.770;9.156;2023-05-07T05:14:22;14.30;99.90
1626;DHT22;806;48.770;9.156;2023-05-07T05:16:49;14.40;99.90
1626;DHT22;806;48.770;9.156;2023-05-07T05:19:16;14.40;99.90
1626;DHT22;806;48.770;9.156;2023-05-07T05:21:43;14.50;99.90
1626;DHT22;806;48.770;9.156;2023-05-07T05:24:11;14.50;99.90
1626;DHT22;806;48.770;9.156;2023-05-07T05:26:38;14.60;99.90
1626;DHT22;806;48.770;9.156;2023-05-07T05:29:05;14.60;99.90
1626;DHT22;806;48.770;9.156;2023-05-07T05:31:33;14.70;99.90
1626;DHT22;806;48.770;9.156;2023-05-07T05:34:01;14.70;99.90
1626;DHT22;806;48.770;9.156;2023-05-07T05:36:32;14.70;99.90
1626;DHT22;806;48.770;9.156;2023-05-07T05:38:59;14.80;99.90
1626;DHT22;806;48.770;9.156;2023-05-07T05:41:27;14.80;99.90
1626;DHT22;806;48.770;9.156;2023-05-07T05:43:54;14.80;99.90
1626;DHT22;806;48.770;9.156;2023-05-07T05:46:21;15.00;99.90
1626;DHT22;806;48.770;9.156;2023-05-07T05:48:48;15.10;99.90
1626;DHT22;806;48.770;9.156;2023-05-07T05:51:15;15.10;99.90
1626;DHT22;806;48.770;9.156;2023-05-07T05:53:42;15.20;99.90
1626;DHT22;806;48.770;9.156;2023-05-07T05:56:09;15.10;99.90
1626;DHT22;806;48.770;9.156;2023-05-07T05:58:38;15.10;99.90
1626;DHT22;806;48.770;9.156;2023-05-07T06:01:05;15.20;99.90
1626;DHT22;806;48.770;9.156;2023-05-07T06:03:32;15.30;99.90
1626;DHT22;806;48.770;9.156;2023-05-07T06:05:59;15.40;99.90
1626;DHT22;806;48.770;9.156;2023-05-07T06:08:29;15.50;99.90
1626;DHT22;806;48.770;9.156;2023-05-07T06:10:56;15.40;99.90
1626;DHT22;806;48.770;9.156;2023-05-07T06:13:23;15.50;99.90
1626;DHT22;806;48.770;9.156;2023-05-07T06:15:52;15.50;99.90
1626;DHT22;806;48.770;9.156;2023-05-07T06:18:19;15.60;99.90
1626;DHT22;806;48.770;9.156;2023-05-07T06:20:46;15.60;99.90
1626;DHT22;806;48.770;9.156;2023-05-07T06:23:14;15.70;99.90
1626;DHT22;806;48.770;9.156;2023-05-07T06:25:41;15.60;99.90
1626;DHT22;806;48.770;9.156;2023-05-07T06:28:08;15.70;99.90
1626;DHT22;806;48.770;9.156;2023-05-07T06:30:36;15.70;99.90
1626;DHT22;806;48.770;9.156;2023-05-07T06:33:05;15.70;99.90
1626;DHT22;806;48.770;9.156;2023-05-07T06:35:32;15.70;99.90
1626;DHT22;806;48.770;9.156;2023-05-07T06:38:00;15.80;99.90
1626;DHT22;806;48.770;9.156;2023-05-07T06:40:27;15.80;99.90
1626;DHT22;806;48.770;9.156;2023-05-07T06:42:54;15.90;99.90
1626;DHT22;806;48.770;9.156;2023-05-07T06:45:21;16.00;99.90
1626;DHT22;806;48.770;9.156;2023-05-07T06:47:49;16.00;99.90
1626;DHT22;806;48.770;9.156;2023-05-07T06:50:17;16.10;99.90
1626;DHT22;806;48.770;9.156;2023-05-07T06:52:44;16.20;99.90
1626;DHT22;806;48.770;9.156;2023-05-07T06:55:12;16.30;99.90
1626;DHT22;806;48.770;9.156;2023-05-07T06:57:39;16.40;99.90
1626;DHT22;806;48.770;9.156;2023-05-07T07:00:07;16.40;99.90
1626;DHT22;806;48.770;9.156;2023-05-07T07:02:34;16.50;99.90
1626;DHT22;806;48.770;9.156;2023-05-07T07:05:01;16.60;99.90
1626;DHT22;806;48.770;9.156;2023-05-07T07:07:30;16.70;99.90
1626;DHT22;806;48.770;9.156;2023-05-07T07:09:57;16.90;99.90
1626;DHT22;806;48.770;9.156;2023-05-07T07:12:24;17.10;99.90
1626;DHT22;806;48.770;9.156;2023-05-07T07:14:51;17.10;99.90
1626;DHT22;806;48.770;9.156;2023-05-07T07:17:18;17.20;99.90
1626;DHT22;806;48.770;9.156;2023-05-07T07:19:45;17.30;99.90
1626;DHT22;806;48.770;9.156;2023-05-07T07:22:12;17.50;99.90
1626;DHT22;806;48.770;9.156;2023-05-07T07:24:41;17.60;99.90
1626;DHT22;806;48.770;9.156;2023-05-07T07:27:08;17.70;99.90
1626;DHT22;806;48.770;9.156;2023-05-07T07:29:35;17.80;99.90
1626;DHT22;806;48.770;9.156;2023-05-07T07:32:02;17.90;99.90
1626;DHT22;806;48.770;9.156;2023-05-07T07:34:29;18.10;99.90
1626;DHT22;806;48.770;9.156;2023-05-07T07:36:56;18.40;99.90
1626;DHT22;806;48.770;9.156;2023-05-07T07:39:23;18.60;99.90
1626;DHT22;806;48.770;9.156;2023-05-07T07:41:51;18.80;99.90
1626;DHT22;806;48.770;9.156;2023-05-07T07:44:19;19.00;99.90
1626;DHT22;806;48.770;9.156;2023-05-07T07:46:46;19.20;99.90
1626;DHT22;806;48.770;9.156;2023-05-07T07:49:13;19.50;99.90
1626;DHT22;806;48.770;9.156;2023-05-07T07:51:40;19.60;99.90
1626;DHT22;806;48.770;9.156;2023-05-07T07:54:07;19.60;99.90
1626;DHT22;806;48.770;9.156;2023-05-07T07:56:34;19.90;99.90
1626;DHT22;806;48.770;9.156;2023-05-07T07:59:03;20.00;99.90
1626;DHT22;806;48.770;9.156;2023-05-07T08:01:30;20.20;99.90
1626;DHT22;806;48.770;9.156;2023-05-07T08:03:58;20.10;99.90
1626;DHT22;806;48.770;9.156;2023-05-07T08:06:25;20.20;99.90
1626;DHT22;806;48.770;9.156;2023-05-07T08:08:52;20.10;99.90
1626;DHT22;806;48.770;9.156;2023-05-07T08:11:20;20.30;99.90
1626;DHT22;806;48.770;9.156;2023-05-07T08:13:47;20.40;99.90
1626;DHT22;806;48.770;9.156;2023-05-07T08:16:16;20.20;99.90
1626;DHT22;806;48.770;9.156;2023-05-07T08:18:43;20.20;99.90
1626;DHT22;806;48.770;9.156;2023-05-07T08:21:10;20.20;99.90
1626;DHT22;806;48.770;9.156;2023-05-07T08:23:37;20.30;99.90
1626;DHT22;806;48.770;9.156;2023-05-07T08:26:04;20.50;99.90
1626;DHT22;806;48.770;9.156;2023-05-07T08:28:31;20.60;99.90
1626;DHT22;806;48.770;9.156;2023-05-07T08:30:59;20.70;99.90
1626;DHT22;806;48.770;9.156;2023-05-07T08:33:28;20.70;99.90
1626;DHT22;806;48.770;9.156;2023-05-07T08:35:55;20.90;99.90
1626;DHT22;806;48.770;9.156;2023-05-07T08:38:22;20.90;99.90
1626;DHT22;806;48.770;9.156;2023-05-07T08:40:49;20.70;99.90
1626;DHT22;806;48.770;9.156;2023-05-07T08:43:17;20.60;99.90
1626;DHT22;806;48.770;9.156;2023-05-07T08:45:45;20.60;99.90
1626;DHT22;806;48.770;9.156;2023-05-07T08:48:15;20.50;99.90
1626;DHT22;806;48.770;9.156;2023-05-07T08:50:44;20.60;99.90
1626;DHT22;806;48.770;9.156;2023-05-07T08:53:12;20.80;99.90
1626;DHT22;806;48.770;9.156;2023-05-07T08:55:39;20.80;99.90
1626;DHT22;806;48.770;9.156;2023-05-07T08:58:06;20.90;99.90
1626;DHT22;806;48.770;9.156;2023-05-07T09:00:33;21.00;99.90
1626;DHT22;806;48.770;9.156;2023-05-07T09:03:02;21.00;99.90
1626;DHT22;806;48.770;9.156;2023-05-07T09:05:29;21.10;99.90
1626;DHT22;806;48.770;9.156;2023-05-07T09:08:02;21.20;99.90
1626;DHT22;806;48.770;9.156;2023-05-07T09:10:29;21.30;99.90
1626;DHT22;806;48.770;9.156;2023-05-07T09:12:56;21.60;99.90
1626;DHT22;806;48.770;9.156;2023-05-07T09:15:23;21.70;99.90
1626;DHT22;806;48.770;9.156;2023-05-07T09:17:50;21.80;99.90
1626;DHT22;806;48.770;9.156;2023-05-07T09:20:18;22.10;99.90
1626;DHT22;806;48.770;9.156;2023-05-07T09:22:45;22.30;99.90
1626;DHT22;806;48.770;9.156;2023-05-07T09:25:13;22.40;99.90
1626;DHT22;806;48.770;9.156;2023-05-07T09:27:41;22.40;99.90
1626;DHT22;806;48.770;9.156;2023-05-07T09:30:09;22.40;99.90
1626;DHT22;806;48.770;9.156;2023-05-07T09:32:37;22.40;99.90
1626;DHT22;806;48.770;9.156;2023-05-07T09:35:05;22.30;99.90
1626;DHT22;806;48.770;9.156;2023-05-07T09:37:33;22.30;99.90
1626;DHT22;806;48.770;9.156;2023-05-07T09:40:00;22.40;99.90
1626;DHT22;806;48.770;9.156;2023-05-07T09:42:29;22.40;99.90
1626;DHT22;806;48.770;9.156;2023-05-07T09:44:56;22.50;99.90
1626;DHT22;806;48.770;9.156;2023-05-07T09:47:24;22.50;99.90
1626;DHT22;806;48.770;9.156;2023-05-07T09:49:56;22.70;99.90
1626;DHT22;806;48.770;9.156;2023-05-07T09:52:23;22.80;99.90
1626;DHT22;806;48.770;9.156;2023-05-07T09:54:55;22.90;99.90
1626;DHT22;806;48.770;9.156;2023-05-07T09:57:25;23.00;99.90
1626;DHT22;806;48.770;9.156;2023-05-07T09:59:56;23.00;99.90
1626;DHT22;806;48.770;9.156;2023-05-07T10:02:26;23.20;99.90
1626;DHT22;806;48.770;9.156;2023-05-07T10:04:58;23.50;99.90
1626;DHT22;806;48.770;9.156;2023-05-07T10:07:26;23.60;99.90
1626;DHT22;806;48.770;9.156;2023-05-07T10:09:55;23.80;99.90
1626;DHT22;806;48.770;9.156;2023-05-07T10:12:23;24.00;99.90
1626;DHT22;806;48.770;9.156;2023-05-07T10:14:54;24.00;99.90
1626;DHT22;806;48.770;9.156;2023-05-07T10:17:23;23.90;99.90
1626;DHT22;806;48.770;9.156;2023-05-07T10:19:50;24.10;99.90
1626;DHT22;806;48.770;9.156;2023-05-07T10:22:20;24.40;99.90
1626;DHT22;806;48.770;9.156;2023-05-07T10:24:49;24.70;99.90
1626;DHT22;806;48.770;9.156;2023-05-07T10:27:20;24.90;99.90
1626;DHT22;806;48.770;9.156;2023-05-07T10:29:59;24.70;99.90
1626;DHT22;806;48.770;9.156;2023-05-07T10:32:38;24.70;99.90
1626;DHT22;806;48.770;9.156;2023-05-07T10:35:10;24.70;99.90
1626;DHT22;806;48.770;9.156;2023-05-07T10:37:38;24.90;99.90
1626;DHT22;806;48.770;9.156;2023-05-07T10:40:06;25.00;99.90
1626;DHT22;806;48.770;9.156;2023-05-07T10:42:33;25.30;99.90
1626;DHT22;806;48.770;9.156;2023-05-07T10:45:13;25.80;99.90
1626;DHT22;806;48.770;9.156;2023-05-07T10:48:06;26.10;99.90
1626;DHT22;806;48.770;9.156;2023-05-07T10:50:34;26.00;99.90
1626;DHT22;806;48.770;9.156;2023-05-07T10:53:23;25.80;99.90
1626;DHT22;806;48.770;9.156;2023-05-07T10:56:24;25.70;99.90
1626;DHT22;806;48.770;9.156;2023-05-07T10:58:54;25.90;99.90
1626;DHT22;806;48.770;9.156;2023-05-07T11:01:51;26.60;99.90
1626;DHT22;806;48.770;9.156;2023-05-07T11:04:18;27.00;99.90
1626;DHT22;806;48.770;9.156;2023-05-07T11:07:14;26.90;99.90
1626;DHT22;806;48.770;9.156;2023-05-07T11:10:02;26.00;98.20
1626;DHT22;806;48.770;9.156;2023-05-07T11:13:03;26.10;99.30
1626;DHT22;806;48.770;9.156;2023-05-07T11:15:41;25.90;99.90
1626;DHT22;806;48.770;9.156;2023-05-07T11:18:12;25.80;99.90
1626;DHT22;806;48.770;9.156;2023-05-07T11:20:47;25.40;99.90
1626;DHT22;806;48.770;9.156;2023-05-07T11:23:54;25.40;99.90
1626;DHT22;806;48.770;9.156;2023-05-07T11:26:22;25.30;99.90
1626;DHT22;806;48.770;9.156;2023-05-07T11:28:49;25.30;99.90
1626;DHT22;806;48.770;9.156;2023-05-07T11:31:21;25.30;99.90
1626;DHT22;806;48.770;9.156;2023-05-07T11:33:49;25.30;99.90
1626;DHT22;806;48.770;9.156;2023-05-07T11:36:18;25.10;99.90
1626;DHT22;806;48.770;9.156;2023-05-07T11:38:46;25.00;99.90
1626;DHT22;806;48.770;9.156;2023-05-07T11:41:13;24.90;99.90
1626;DHT22;806;48.770;9.156;2023-05-07T11:43:57;24.40;99.90
1626;DHT22;806;48.770;9.156;2023-05-07T11:46:24;24.50;99.90
1626;DHT22;806;48.770;9.156;2023-05-07T11:48:53;24.40;99.90
1626;DHT22;806;48.770;9.156;2023-05-07T11:51:21;24.30;99.90
1626;DHT22;806;48.770;9.156;2023-05-07T11:53:49;24.20;99.90
1626;DHT22;806;48.770;9.156;2023-05-07T11:56:17;24.10;99.90
1626;DHT22;806;48.770;9.156;2023-05-07T11:58:46;24.00;99.90
1626;DHT22;806;48.770;9.156;2023-05-07T12:01:14;23.70;99.90
1626;DHT22;806;48.770;9.156;2023-05-07T12:03:42;23.50;99.90
1626;DHT22;806;48.770;9.156;2023-05-07T12:06:13;23.30;99.90
1626;DHT22;806;48.770;9.156;2023-05-07T12:08:41;22.90;99.90
1626;DHT22;806;48.770;9.156;2023-05-07T12:11:11;22.50;99.90
1626;DHT22;806;48.770;9.156;2023-05-07T12:13:39;22.10;99.90
1626;DHT22;806;48.770;9.156;2023-05-07T12:16:07;21.40;99.90
1626;DHT22;806;48.770;9.156;2023-05-07T12:18:35;20.80;99.90
1626;DHT22;806;48.770;9.156;2023-05-07T12:21:05;20.10;99.90
1626;DHT22;806;48.770;9.156;2023-05-07T12:23:35;19.60;99.90
1626;DHT22;806;48.770;9.156;2023-05-07T12:26:03;18.80;99.90
1626;DHT22;806;48.770;9.156;2023-05-07T12:28:30;18.40;99.90
1626;DHT22;806;48.770;9.156;2023-05-07T12:30:58;18.20;99.90
1626;DHT22;806;48.770;9.156;2023-05-07T12:33:26;18.10;99.90
1626;DHT22;806;48.770;9.156;2023-05-07T12:35:55;18.10;99.90
1626;DHT22;806;48.770;9.156;2023-05-07T12:38:22;18.00;99.90
1626;DHT22;806;48.770;9.156;2023-05-07T12:40:54;17.70;99.90
1626;DHT22;806;48.770;9.156;2023-05-07T12:43:23;18.00;99.90
1626;DHT22;806;48.770;9.156;2023-05-07T12:45:52;17.90;99.90
1626;DHT22;806;48.770;9.156;2023-05-07T12:48:20;17.60;99.90
1626;DHT22;806;48.770;9.156;2023-05-07T12:50:49;17.10;99.90
1626;DHT22;806;48.770;9.156;2023-05-07T12:53:17;16.70;99.90
1626;DHT22;806;48.770;9.156;2023-05-07T12:55:47;16.30;99.90
1626;DHT22;806;48.770;9.156;2023-05-07T12:58:19;16.30;99.90
1626;DHT22;806;48.770;9.156;2023-05-07T13:00:48;16.40;99.90
1626;DHT22;806;48.770;9.156;2023-05-07T13:03:24;16.40;99.90
1626;DHT22;806;48.770;9.156;2023-05-07T13:05:52;16.50;99.90
1626;DHT22;806;48.770;9.156;2023-05-07T13:08:24;16.40;99.90
1626;DHT22;806;48.770;9.156;2023-05-07T13:10:51;16.40;99.90
1626;DHT22;806;48.770;9.156;2023-05-07T13:13:20;16.50;99.90
1626;DHT22;806;48.770;9.156;2023-05-07T13:15:47;16.20;99.90
1626;DHT22;806;48.770;9.156;2023-05-07T13:18:14;15.80;99.90
1626;DHT22;806;48.770;9.156;2023-05-07T13:20:41;15.50;99.90
1626;DHT22;806;48.770;9.156;2023-05-07T13:23:08;15.40;99.90
1626;DHT22;806;48.770;9.156;2023-05-07T13:25:35;15.30;99.90
1626;DHT22;806;48.770;9.156;2023-05-07T13:28:02;15.40;99.90
1626;DHT22;806;48.770;9.156;2023-05-07T13:30:31;15.40;99.90
1626;DHT22;806;48.770;9.156;2023-05-07T13:32:58;15.50;99.90
1626;DHT22;806;48.770;9.156;2023-05-07T13:35:25;15.60;99.90
1626;DHT22;806;48.770;9.156;2023-05-07T13:37:53;15.60;99.90
1626;DHT22;806;48.770;9.156;2023-05-07T13:40:20;15.70;99.90
1626;DHT22;806;48.770;9.156;2023-05-07T13:42:47;15.80;99.90
1626;DHT22;806;48.770;9.156;2023-05-07T13:45:15;15.90;99.90
1626;DHT22;806;48.770;9.156;2023-05-07T13:47:43;16.10;99.90
1626;DHT22;806;48.770;9.156;2023-05-07T13:50:11;16.20;99.90
1626;DHT22;806;48.770;9.156;2023-05-07T13:52:40;16.30;99.90
1626;DHT22;806;48.770;9.156;2023-05-07T13:55:09;16.50;99.90
1626;DHT22;806;48.770;9.156;2023-05-07T13:57:36;16.70;99.90
1626;DHT22;806;48.770;9.156;2023-05-07T14:00:04;16.80;99.90
1626;DHT22;806;48.770;9.156;2023-05-07T14:02:32;16.90;99.90
1626;DHT22;806;48.770;9.156;2023-05-07T14:05:00;16.70;99.90
1626;DHT22;806;48.770;9.156;2023-05-07T14:07:27;16.40;99.90
1626;DHT22;806;48.770;9.156;2023-05-07T14:09:54;16.30;99.90
1626;DHT22;806;48.770;9.156;2023-05-07T14:12:22;16.30;99.90
1626;DHT22;806;48.770;9.156;2023-05-07T14:14:49;16.20;99.90
1626;DHT22;806;48.770;9.156;2023-05-07T14:17:16;16.20;99.90
1626;DHT22;806;48.770;9.156;2023-05-07T14:19:44;16.10;99.90
1626;DHT22;806;48.770;9.156;2023-05-07T14:22:13;16.00;99.90
1626;DHT22;806;48.770;9.156;2023-05-07T14:24:41;16.10;99.90
1626;DHT22;806;48.770;9.156;2023-05-07T14:27:08;15.90;99.90
1626;DHT22;806;48.770;9.156;2023-05-07T14:29:35;15.90;99.90
1626;DHT22;806;48.770;9.156;2023-05-07T14:32:03;15.80;99.90
1626;DHT22;806;48.770;9.156;2023-05-07T14:34:30;15.90;99.90
1626;DHT22;806;48.770;9.156;2023-05-07T14:36:58;15.90;99.90
1626;DHT22;806;48.770;9.156;2023-05-07T14:39:26;15.70;99.90
1626;DHT22;806;48.770;9.156;2023-05-07T14:41:53;15.70;99.90
1626;DHT22;806;48.770;9.156;2023-05-07T14:44:21;15.80;99.90
1626;DHT22;806;48.770;9.156;2023-05-07T14:46:48;15.80;99.90
1626;DHT22;806;48.770;9.156;2023-05-07T14:49:16;15.90;99.90
1626;DHT22;806;48.770;9.156;2023-05-07T14:51:43;16.00;99.90
1626;DHT22;806;48.770;9.156;2023-05-07T14:54:11;15.90;99.90
1626;DHT22;806;48.770;9.156;2023-05-07T14:56:40;16.00;99.90
1626;DHT22;806;48.770;9.156;2023-05-07T14:59:08;16.00;99.90
1626;DHT22;806;48.770;9.156;2023-05-07T15:01:35;16.10;99.90
1626;DHT22;806;48.770;9.156;2023-05-07T15:04:03;16.20;99.90
1626;DHT22;806;48.770;9.156;2023-05-07T15:06:30;16.40;99.90
1626;DHT22;806;48.770;9.156;2023-05-07T15:08:57;16.30;99.90
1626;DHT22;806;48.770;9.156;2023-05-07T15:11:24;16.20;99.90
1626;DHT22;806;48.770;9.156;2023-05-07T15:13:53;16.20;99.90
1626;DHT22;806;48.770;9.156;2023-05-07T15:16:20;16.20;99.90
1626;DHT22;806;48.770;9.156;2023-05-07T15:18:47;16.20;99.90
1626;DHT22;806;48.770;9.156;2023-05-07T15:21:14;16.20;99.90
1626;DHT22;806;48.770;9.156;2023-05-07T15:23:41;16.30;99.90
1626;DHT22;806;48.770;9.156;2023-05-07T15:26:10;16.50;99.90
1626;DHT22;806;48.770;9.156;2023-05-07T15:28:37;16.50;99.90
1626;DHT22;806;48.770;9.156;2023-05-07T15:31:06;16.50;99.90
1626;DHT22;806;48.770;9.156;2023-05-07T15:33:34;16.70;99.90
1626;DHT22;806;48.770;9.156;2023-05-07T15:36:01;16.80;99.90
1626;DHT22;806;48.770;9.156;2023-05-07T15:38:29;16.80;99.90
1626;DHT22;806;48.770;9.156;2023-05-07T15:40:56;17.10;99.90
1626;DHT22;806;48.770;9.156;2023-05-07T15:43:23;17.30;99.90
1626;DHT22;806;48.770;9.156;2023-05-07T15:45:51;17.50;99.90
1626;DHT22;806;48.770;9.156;2023-05-07T15:48:20;17.70;99.90
1626;DHT22;806;48.770;9.156;2023-05-07T15:50:47;17.80;99.90
1626;DHT22;806;48.770;9.156;2023-05-07T15:53:14;17.80;99.90
1626;DHT22;806;48.770;9.156;2023-05-07T15:55:41;17.90;99.90
1626;DHT22;806;48.770;9.156;2023-05-07T15:58:08;18.00;99.90
1626;DHT22;806;48.770;9.156;2023-05-07T16:00:37;17.90;99.90
1626;DHT22;806;48.770;9.156;2023-05-07T16:03:05;17.90;99.90
1626;DHT22;806;48.770;9.156;2023-05-07T16:05:34;17.80;99.90
1626;DHT22;806;48.770;9.156;2023-05-07T16:08:02;17.70;99.90
1626;DHT22;806;48.770;9.156;2023-05-07T16:10:29;17.70;99.90
1626;DHT22;806;48.770;9.156;2023-05-07T16:12:56;17.60;99.90
1626;DHT22;806;48.770;9.156;2023-05-07T16:15:24;17.60;99.90
1626;DHT22;806;48.770;9.156;2023-05-07T16:17:51;17.60;99.90
1626;DHT22;806;48.770;9.156;2023-05-07T16:20:23;17.60;99.90
1626;DHT22;806;48.770;9.156;2023-05-07T16:22:53;17.70;99.90
1626;DHT22;806;48.770;9.156;2023-05-07T16:25:20;17.70;99.90